Startpagina
METAR-TAF:

METAR-TAF

Vliegvelden :

Melun, Frankrijk

breedte: 48-37N, lengte: 002-41E, hoogte: 95 m

Actueel weer

Dit bericht is 37 minuten geleden gemaakt, om 12:30 UTC
Wind 9 kt uit het oostnoordoosten, variërend tussen het noorden en het oosten
Temperatuur 25°C
Vochtigheid 24%
Druk 1022 hPa
Zicht 10 km of meer
geen wolken onder 1500 m en geen cumulonimbus

METAR: LFPM 101230Z AUTO 07009KT 010V090 CAVOK 25/03 Q1022

Tijdstip: 15:07 (13:07 UTC)


TAF: ontbreekt

Waarnemingen en weersverwachtingen van meer dan 4000 vliegvelden (METAR en TAF).

De beschikbare stations zijn de gele en rode punten op de kaart.

Ga met uw muis naar het station om de naam te zien.

Klik dan om waarnemingen en weersverwachtingen te zien.

kaart wijzigen: klik op de groene knoppen met een zwart kruis om in te zoomen, op de groene knop met een streepje om uit te zoomen of op de groene pijlen voor aangrenzende kaarten.


METAR-TAF: